Terminal Aerodrome Forecast
Issued by NWS King Salmon, AK

Home | Current Version | Previous Version | Text Only | Print | Product List | Glossary On
Versions: 1 2 3 4 5 6 7 8 9 10 11 12 13 14 15 16 17 18 19 20 21 22 23 24 25 26 27 28
000
FTAK31 PANC 272323
TAFAKN
TAF
PAKN 272323Z 2800/2824 04005KT P6SM SCT035 BKN050
      TEMPO 2800/2804 5SM -SHRA BKN022 OVC035
     FM281500 VRB03KT P6SM -RA OVC025
     FM282200 VRB02KT P6SM SCT025 OVC040=

USA.gov is the U.S. government's official web portal to all federal, state and local government web resources and services.